.
WxDataArchive / Data Records for 2008-03-10
2008-03-09 March 2008 2008-03-11

Data Records for Monday, 10 March 2008

Time	Temp	Chill	HIndex	Humid	Dewpt	 Wind 	HiWind	WindDir	Rain 	Barom 
-----	----	-----	------	-----	-----	------	------	-------	-----	----- 
00:00	28.5	28.5	28.5	84	24.3	0	0	---	0.00	30.288 
00:05	28.4	28.4	28.4	84	24.2	0	0	---	0.00	30.288 
00:10	28.2	28.2	28.2	84	24.0	0	0	---	0.00	30.288 
00:15	28.2	28.2	28.2	84	24.0	0	0	---	0.00	30.290 
00:20	28.1	28.1	28.1	84	23.9	0	0	---	0.00	30.291 
00:25	28.1	28.1	28.1	84	23.9	0	0	---	0.00	30.292 
00:30	28.2	28.2	28.2	84	24.0	0	1	135	0.00	30.291 
00:35	28.2	28.2	28.2	84	24.0	0	1	135	0.00	30.287 
00:40	28.2	28.2	28.2	84	24.0	0	1	135	0.00	30.287 
00:45	28.2	28.2	28.2	84	24.0	0	1	135	0.00	30.286 
00:50	28.2	28.2	28.2	84	24.0	0	1	135	0.00	30.286 
00:55	28.1	28.1	28.1	84	23.9	0	1	135	0.00	30.285 
01:00	27.9	27.9	27.9	84	23.7	0	1	135	0.00	30.287 
01:05	27.8	27.8	27.8	84	23.6	0	0	---	0.00	30.285 
01:10	27.3	27.3	27.3	84	23.1	0	0	---	0.00	30.285 
01:15	27.0	27.0	27.0	84	22.8	0	0	---	0.00	30.288 
01:20	26.7	26.7	26.7	84	22.5	0	0	---	0.00	30.288 
01:25	26.4	26.4	26.4	84	22.2	0	0	---	0.00	30.288 
01:30	26.3	26.3	26.3	84	22.1	0	0	---	0.00	30.291 
01:35	26.0	26.0	26.0	85	22.1	0	0	---	0.00	30.291 
01:40	25.8	25.8	25.8	85	21.9	0	0	---	0.00	30.291 
01:45	25.6	25.6	25.6	85	21.7	0	0	---	0.00	30.289 
01:50	25.4	25.4	25.4	86	21.8	0	0	---	0.00	30.289 
01:55	25.3	25.3	25.3	86	21.7	0	0	---	0.00	30.288 
02:00	25.0	25.0	25.0	87	21.7	0	0	---	0.00	30.287 
02:05	25.0	25.0	25.0	87	21.7	0	0	---	0.00	30.287 
02:10	24.8	24.8	24.8	87	21.5	0	0	---	0.00	30.289 
02:15	24.8	24.8	24.8	88	21.8	0	0	---	0.00	30.291 
02:20	24.8	24.8	24.8	88	21.8	0	0	---	0.00	30.291 
02:25	24.8	24.8	24.8	88	21.8	0	0	---	0.00	30.288 
02:30	24.7	24.7	24.7	88	21.7	0	0	---	0.00	30.288 
02:35	24.8	24.8	24.8	89	22.0	0	0	---	0.00	30.287 
02:40	25.3	25.3	25.3	90	22.8	0	0	---	0.00	30.287 
02:45	25.6	25.6	25.6	90	23.1	0	1	135	0.00	30.287 
02:50	25.8	25.8	25.8	90	23.3	0	2	135	0.00	30.285 
02:55	26.0	26.0	26.0	89	23.2	0	1	135	0.00	30.283 
03:00	26.3	26.3	26.3	89	23.5	0	2	135	0.00	30.275 
03:05	26.3	26.3	26.3	88	23.2	0	2	135	0.00	30.270 
03:10	26.4	26.4	26.4	88	23.3	1	2	135	0.00	30.269 
03:15	26.6	26.6	26.6	88	23.5	0	1	135	0.00	30.268 
03:20	26.6	26.6	26.6	88	23.5	0	1	135	0.00	30.267 
03:25	26.4	26.4	26.4	88	23.3	0	1	135	0.00	30.269 
03:30	26.4	26.4	26.4	88	23.3	0	0	---	0.00	30.269 
03:35	26.4	26.4	26.4	87	23.1	0	0	---	0.00	30.270 
03:40	26.4	26.4	26.4	87	23.1	0	1	135	0.00	30.269 
03:45	26.6	26.6	26.6	88	23.5	0	1	135	0.00	30.268 
03:50	26.6	26.6	26.6	87	23.3	0	1	135	0.00	30.270 
03:55	26.6	26.6	26.6	87	23.3	0	1	135	0.00	30.270 
04:00	26.6	26.6	26.6	87	23.3	0	1	135	0.00	30.270 
04:05	26.6	26.6	26.6	87	23.3	0	1	135	0.00	30.271 
04:10	26.6	26.6	26.6	87	23.3	0	1	135	0.00	30.270 
04:15	26.7	26.7	26.7	87	23.4	0	0	---	0.00	30.270 
04:20	26.7	26.7	26.7	87	23.4	0	0	---	0.00	30.272 
04:25	26.7	26.7	26.7	87	23.4	0	0	---	0.00	30.273 
04:30	26.7	26.7	26.7	87	23.4	0	0	---	0.00	30.270 
04:35	26.9	26.9	26.9	87	23.6	0	0	---	0.00	30.269 
04:40	27.0	27.0	27.0	87	23.7	0	0	---	0.00	30.269 
04:45	27.0	27.0	27.0	86	23.4	0	0	---	0.00	30.269 
04:50	27.0	27.0	27.0	86	23.4	0	0	---	0.00	30.270 
04:55	27.2	27.2	27.2	87	23.9	0	0	---	0.00	30.270 
05:00	27.3	27.3	27.3	87	24.0	0	1	135	0.00	30.269 
05:05	27.5	27.5	27.5	87	24.1	0	2	135	0.00	30.268 
05:10	27.6	27.6	27.6	87	24.2	0	0	---	0.00	30.269 
05:15	27.6	27.6	27.6	86	24.0	0	0	---	0.00	30.269 
05:20	27.6	27.6	27.6	86	24.0	1	2	135	0.00	30.268 
05:25	27.6	27.6	27.6	86	24.0	0	2	135	0.00	30.268 
05:30	27.8	27.8	27.8	86	24.2	0	1	135	0.00	30.270 
05:35	27.8	27.8	27.8	86	24.2	0	1	135	0.00	30.271 
05:40	27.8	27.8	27.8	86	24.2	0	1	135	0.00	30.271 
05:45	27.9	27.9	27.9	86	24.3	0	1	135	0.00	30.269 
05:50	27.9	27.9	27.9	85	24.0	0	1	135	0.00	30.270 
05:55	27.9	27.9	27.9	85	24.0	0	1	135	0.00	30.270 
06:00	28.1	28.1	28.1	86	24.5	0	1	135	0.00	30.269 
06:05	28.1	28.1	28.1	85	24.2	0	2	135	0.00	30.269 
06:10	28.2	28.2	28.2	85	24.3	0	2	135	0.00	30.269 
06:15	28.2	28.2	28.2	85	24.3	0	2	135	0.00	30.269 
06:20	28.2	28.2	28.2	85	24.3	0	1	135	0.00	30.271 
06:25	28.4	28.4	28.4	85	24.5	0	2	135	0.00	30.271 
06:30	28.4	28.4	28.4	85	24.5	0	2	135	0.00	30.277 
06:35	28.5	28.5	28.5	86	24.9	0	2	135	0.00	30.280 
06:40	28.5	28.5	28.5	86	24.9	0	1	135	0.00	30.283 
06:45	28.5	28.5	28.5	86	24.9	0	1	135	0.00	30.285 
06:50	28.4	28.4	28.4	87	25.0	0	1	135	0.00	30.286 
06:55	28.4	28.4	28.4	87	25.0	0	1	135	0.00	30.286 
07:00	28.2	28.2	28.2	88	25.1	0	1	135	0.00	30.286 
07:05	28.2	28.2	28.2	88	25.1	0	1	135	0.00	30.286 
07:10	28.1	28.1	28.1	88	25.0	1	2	135	0.00	30.285 
07:15	27.9	27.9	27.9	89	25.1	1	3	112	0.00	30.283 
07:20	27.8	27.8	27.8	90	25.3	0	1	112	0.00	30.281 
07:25	27.8	27.8	27.8	90	25.3	0	1	112	0.00	30.279 
07:30	27.8	27.8	27.8	90	25.3	0	1	112	0.00	30.283 
07:35	27.8	27.8	27.8	91	25.5	0	2	112	0.00	30.283 
07:40	27.8	27.8	27.8	91	25.5	0	1	112	0.00	30.277 
07:45	27.6	27.6	27.6	91	25.3	1	4	112	0.00	30.277 
07:50	27.5	27.5	27.5	91	25.2	1	4	112	0.00	30.281 
07:55	27.5	27.5	27.5	91	25.2	0	1	112	0.00	30.281 
08:00	27.6	27.6	27.6	92	25.6	0	1	112	0.00	30.283 
08:05	27.8	27.8	27.8	92	25.8	0	1	112	0.00	30.285 
08:10	27.9	27.9	27.9	92	25.9	0	1	112	0.00	30.285 
08:15	28.2	28.2	28.2	92	26.2	0	1	90	0.00	30.285 
08:20	28.4	28.4	28.4	91	26.1	0	1	90	0.00	30.284 
08:25	28.5	28.5	28.5	91	26.2	0	2	90	0.00	30.285 
08:30	28.5	28.5	28.5	91	26.2	0	2	90	0.00	30.285 
08:35	28.7	28.7	28.7	90	26.1	0	2	90	0.00	30.288 
08:40	28.8	28.8	28.8	90	26.2	0	2	90	0.00	30.289 
08:45	29.0	29.0	29.0	90	26.4	0	1	90	0.00	30.288 
08:50	29.1	29.1	29.1	90	26.5	0	1	90	0.00	30.290 
08:55	29.4	29.4	29.4	90	26.8	0	2	68	0.00	30.290 
09:00	29.5	29.5	29.5	89	26.7	0	1	68	0.00	30.288 
09:05	29.7	29.7	29.7	89	26.9	0	2	68	0.00	30.292 
09:10	29.8	29.8	29.8	89	27.0	1	4	112	0.00	30.289 
09:15	29.7	29.7	29.7	88	26.6	2	4	90	0.00	30.286 
09:20	30.0	30.0	30.0	89	27.2	1	3	90	0.00	30.286 
09:25	30.1	30.1	30.1	88	27.0	1	3	90	0.00	30.286 
09:30	30.4	30.4	30.4	89	27.6	1	2	90	0.00	30.286 
09:35	30.7	30.7	30.7	88	27.6	1	3	45	0.00	30.284 
09:40	31.0	31.0	31.0	88	27.9	1	3	45	0.00	30.285 
09:45	31.2	31.2	31.2	88	28.1	1	3	112	0.00	30.286 
09:50	31.5	31.5	31.5	88	28.4	0	2	112	0.00	30.286 
09:55	31.8	31.8	31.8	88	28.7	1	3	112	0.00	30.286 
10:00	31.9	31.9	31.9	88	28.8	0	2	112	0.00	30.292 
10:05	32.1	32.1	32.1	87	28.7	0	1	112	0.00	30.295 
10:10	32.2	32.2	32.2	87	28.8	1	3	112	0.00	30.291 
10:15	32.4	32.4	32.4	88	29.3	0	2	112	0.00	30.293 
10:20	32.7	32.7	32.7	87	29.3	1	3	112	0.00	30.293 
10:25	32.8	32.8	32.8	87	29.4	1	3	112	0.00	30.293 
10:30	33.1	33.1	33.1	87	29.7	1	3	112	0.00	30.291 
10:35	33.4	33.4	33.4	86	29.7	1	3	112	0.00	30.292 
10:40	33.7	33.7	33.7	86	30.0	0	2	112	0.00	30.292 
10:45	34.1	34.1	34.1	85	30.1	1	2	112	0.01	30.289 
10:50	34.7	34.7	34.7	83	30.1	1	3	112	0.02	30.287 
10:55	35.6	35.6	35.6	82	30.7	1	2	112	0.00	30.289 
11:00	36.3	36.3	36.3	80	30.7	0	2	90	0.01	30.285 
11:05	37.0	37.0	37.0	78	30.8	0	1	90	0.00	30.284 
11:10	37.6	37.6	37.6	77	31.1	0	2	90	0.00	30.285 
11:15	38.0	38.0	38.0	74	30.5	1	2	90	0.01	30.285 
11:20	38.0	38.0	38.0	75	30.8	1	2	90	0.00	30.286 
11:25	38.0	38.0	38.0	74	30.5	0	2	90	0.00	30.286 
11:30	38.3	38.3	38.3	74	30.8	0	2	90	0.00	30.283 
11:35	38.9	38.9	38.9	73	31.0	0	2	90	0.00	30.281 
11:40	39.2	39.2	39.2	72	30.9	0	2	90	0.01	30.281 
11:45	38.9	38.9	38.9	71	30.3	0	3	90	0.00	30.281 
11:50	38.8	38.8	38.8	72	30.6	1	3	90	0.00	30.278 
11:55	38.8	38.8	38.8	73	30.9	1	3	90	0.00	30.278 
12:00	38.6	38.6	38.6	73	30.7	1	4	90	0.00	30.279 
12:05	38.2	38.2	38.2	73	30.3	0	2	90	0.00	30.283 
12:10	37.9	37.9	37.9	74	30.4	1	4	90	0.01	30.281 
12:15	38.2	38.2	38.2	73	30.3	2	4	90	0.00	30.281 
12:20	38.0	38.0	38.0	74	30.5	2	5	90	0.00	30.280 
12:25	38.2	38.2	38.2	73	30.3	2	4	112	0.00	30.279 
12:30	38.3	38.3	38.3	73	30.4	1	4	112	0.00	30.279 
12:35	38.0	38.0	38.0	73	30.1	2	5	112	0.00	30.276 
12:40	38.0	38.0	38.0	74	30.5	2	5	112	0.00	30.272 
12:45	37.8	37.8	37.8	75	30.6	3	5	112	0.00	30.268 
12:50	37.9	37.9	37.9	74	30.4	2	4	112	0.00	30.267 
12:55	38.0	38.0	38.0	75	30.8	2	5	112	0.00	30.265 
13:00	38.3	38.3	38.3	74	30.8	2	7	90	0.00	30.260 
13:05	38.5	38.5	38.5	73	30.6	2	5	112	0.01	30.264 
13:10	38.8	38.8	38.8	73	30.9	1	4	90	0.00	30.257 
13:15	38.9	38.9	38.9	73	31.0	1	4	112	0.00	30.255 
13:20	38.9	38.9	38.9	72	30.7	2	5	112	0.00	30.255 
13:25	38.9	38.9	38.9	72	30.7	1	3	112	0.00	30.253 
13:30	38.9	38.9	38.9	72	30.7	1	3	90	0.00	30.252 
13:35	38.9	38.9	38.9	72	30.7	2	5	90	0.00	30.253 
13:40	38.9	38.9	38.9	73	31.0	1	4	90	0.00	30.251 
13:45	39.2	39.2	39.2	72	30.9	1	4	90	0.00	30.250 
13:50	39.3	39.3	39.3	71	30.7	1	4	68	0.00	30.250 
13:55	39.5	39.5	39.5	70	30.5	1	3	45	0.00	30.249 
14:00	39.8	39.8	39.8	70	30.8	0	2	45	0.00	30.249 
14:05	39.9	39.9	39.9	69	30.6	0	3	45	0.00	30.248 
14:10	40.2	40.2	40.2	68	30.5	1	2	22	0.00	30.247 
14:15	40.3	40.3	40.3	67	30.2	1	3	112	0.00	30.245 
14:20	40.5	40.5	40.5	67	30.4	1	3	112	0.00	30.244 
14:25	40.3	40.3	40.3	67	30.2	1	3	90	0.00	30.244 
14:30	40.1	40.1	40.1	68	30.4	1	4	112	0.00	30.238 
14:35	40.2	40.2	40.2	68	30.5	0	2	112	0.00	30.237 
14:40	40.5	40.5	40.5	67	30.4	0	2	68	0.00	30.234 
14:45	40.5	40.5	40.5	67	30.4	0	1	68	0.00	30.234 
14:50	40.3	40.3	40.3	67	30.2	0	2	0	0.00	30.234 
14:55	40.5	40.5	40.5	67	30.4	0	2	0	0.00	30.234 
15:00	40.2	40.2	40.2	68	30.5	1	3	338	0.00	30.233 
15:05	39.9	39.9	39.9	68	30.2	0	2	338	0.00	30.233 
15:10	39.5	39.5	39.5	69	30.2	1	3	292	0.00	30.233 
15:15	39.1	39.1	39.1	70	30.2	1	2	292	0.00	30.234 
15:20	38.8	38.8	38.8	71	30.2	0	2	292	0.00	30.237 
15:25	38.5	38.5	38.5	72	30.3	1	3	315	0.00	30.239 
15:30	38.3	38.3	38.3	72	30.1	1	3	315	0.00	30.240 
15:35	38.2	38.2	38.2	73	30.3	1	3	0	0.00	30.243 
15:40	38.0	38.0	38.0	73	30.1	1	3	292	0.00	30.240 
15:45	38.0	38.0	38.0	73	30.1	1	3	292	0.00	30.245 
15:50	37.8	37.8	37.8	73	29.9	1	3	292	0.00	30.245 
15:55	37.8	37.8	37.8	74	30.3	0	2	292	0.00	30.246 
16:00	37.8	37.8	37.8	74	30.3	0	1	292	0.00	30.245 
16:05	37.9	37.9	37.9	74	30.4	0	1	292	0.00	30.244 
16:10	37.9	37.9	37.9	74	30.4	0	2	292	0.00	30.246 
16:15	37.8	37.8	37.8	75	30.6	0	1	292	0.00	30.247 
16:20	37.6	37.6	37.6	76	30.7	0	2	292	0.00	30.248 
16:25	37.5	37.5	37.5	76	30.6	0	2	292	0.00	30.249 
16:30	37.5	37.5	37.5	77	31.0	0	2	292	0.00	30.250 
16:35	37.3	37.3	37.3	77	30.8	0	2	315	0.00	30.250 
16:40	37.2	37.2	37.2	77	30.7	0	2	315	0.00	30.253 
16:45	37.2	37.2	37.2	77	30.7	0	2	315	0.00	30.254 
16:50	37.2	37.2	37.2	78	31.0	0	2	315	0.00	30.253 
16:55	37.0	37.0	37.0	78	30.8	0	3	315	0.00	30.254 
17:00	36.9	36.9	36.9	79	31.0	0	2	315	0.00	30.255 
17:05	36.9	36.9	36.9	79	31.0	1	3	292	0.00	30.259 
17:10	36.6	36.6	36.6	80	31.0	1	5	270	0.00	30.262 
17:15	36.5	36.5	36.5	81	31.2	0	2	270	0.00	30.264 
17:20	36.5	36.5	36.5	81	31.2	0	3	270	0.00	30.264 
17:25	36.5	36.5	36.5	80	30.9	0	2	292	0.00	30.263 
17:30	36.6	36.6	36.6	79	30.7	0	4	292	0.00	30.264 
17:35	36.6	36.6	36.6	78	30.4	0	1	315	0.00	30.263 
17:40	36.8	36.8	36.8	77	30.3	0	2	315	0.00	30.263 
17:45	36.9	36.9	36.9	76	30.1	0	2	315	0.00	30.264 
17:50	36.9	36.9	36.9	76	30.1	0	2	315	0.00	30.264 
17:55	36.8	36.8	36.8	75	29.6	0	1	315	0.00	30.265 
18:00	36.6	36.6	36.6	76	29.8	0	1	315	0.00	30.266 
18:05	36.5	36.5	36.5	77	30.0	0	2	315	0.00	30.266 
18:10	36.2	36.2	36.2	77	29.7	0	2	315	0.00	30.268 
18:15	36.0	36.0	36.0	77	29.5	0	1	315	0.00	30.271 
18:20	35.9	35.9	35.9	77	29.4	0	1	315	0.00	30.271 
18:25	35.6	35.6	35.6	78	29.4	0	0	---	0.00	30.273 
18:30	35.3	35.3	35.3	79	29.4	0	0	---	0.00	30.276 
18:35	35.2	35.2	35.2	79	29.4	0	1	315	0.00	30.279 
18:40	35.2	35.2	35.2	80	29.7	0	1	315	0.00	30.280 
18:45	35.0	35.0	35.0	80	29.5	0	1	315	0.00	30.282 
18:50	35.0	35.0	35.0	81	29.8	0	1	315	0.00	30.282 
18:55	35.0	35.0	35.0	81	29.8	0	1	315	0.00	30.282 
19:00	34.9	34.9	34.9	81	29.7	0	1	315	0.00	30.282 
19:05	34.9	34.9	34.9	81	29.7	0	1	315	0.00	30.282 
19:10	34.9	34.9	34.9	81	29.7	0	0	---	0.00	30.280 
19:15	34.7	34.7	34.7	81	29.5	0	1	315	0.00	30.279 
19:20	34.7	34.7	34.7	81	29.5	0	0	---	0.00	30.280 
19:25	34.6	34.6	34.6	81	29.4	0	0	---	0.00	30.281 
19:30	34.6	34.6	34.6	81	29.4	0	1	315	0.00	30.279 
19:35	34.6	34.6	34.6	81	29.4	0	0	---	0.00	30.277 
19:40	34.6	34.6	34.6	81	29.4	0	1	315	0.00	30.278 
19:45	34.6	34.6	34.6	81	29.4	0	0	---	0.00	30.279 
19:50	34.6	34.6	34.6	81	29.4	0	1	315	0.00	30.280 
19:55	34.6	34.6	34.6	79	28.8	0	1	315	0.00	30.277 
20:00	34.4	34.4	34.4	77	27.9	0	3	315	0.00	30.275 
20:05	34.4	34.4	34.4	74	27.0	1	3	292	0.00	30.274 
20:10	34.4	34.4	34.4	73	26.7	1	3	338	0.00	30.274 
20:15	34.3	34.3	34.3	71	25.9	1	6	292	0.00	30.272 
20:20	34.3	34.3	34.3	71	25.9	1	4	270	0.00	30.274 
20:25	34.1	34.1	34.1	72	26.0	0	3	270	0.00	30.275 
20:30	34.0	34.0	34.0	72	25.9	0	2	270	0.00	30.276 
20:35	34.0	34.0	34.0	72	25.9	0	2	270	0.00	30.277 
20:40	33.8	33.8	33.8	72	25.7	0	2	270	0.00	30.278 
20:45	33.7	33.7	33.7	72	25.7	0	2	270	0.00	30.279 
20:50	33.7	33.7	33.7	71	25.3	0	1	270	0.00	30.280 
20:55	33.5	33.5	33.5	71	25.1	0	1	270	0.00	30.281 
21:00	33.5	33.5	33.5	71	25.1	0	1	270	0.00	30.281 
21:05	33.4	33.4	33.4	71	25.0	0	1	270	0.00	30.281 
21:10	33.4	33.4	33.4	71	25.0	0	1	270	0.00	30.280 
21:15	33.2	33.2	33.2	71	24.8	0	2	270	0.00	30.279 
21:20	33.2	33.2	33.2	71	24.8	0	2	270	0.00	30.279 
21:25	33.1	33.1	33.1	70	24.4	0	2	270	0.00	30.278 
21:30	33.1	33.1	33.1	69	24.1	0	3	270	0.00	30.272 
21:35	32.9	32.9	32.9	69	23.9	0	2	270	0.00	30.274 
21:40	32.8	32.8	32.8	69	23.8	0	1	270	0.00	30.276 
21:45	32.7	32.7	32.7	70	24.0	0	1	270	0.00	30.276 
21:50	32.7	32.7	32.7	70	24.0	0	1	270	0.00	30.273 
21:55	32.5	32.5	32.5	69	23.5	0	1	270	0.00	30.270 
22:00	32.4	32.4	32.4	69	23.4	0	1	270	0.00	30.270 
22:05	32.2	32.2	32.2	69	23.2	0	1	270	0.00	30.267 
22:10	32.1	32.1	32.1	69	23.1	0	2	270	0.00	30.267 
22:15	31.9	31.9	31.9	70	23.2	0	2	270	0.00	30.267 
22:20	31.8	31.8	31.8	70	23.2	0	3	270	0.00	30.265 
22:25	31.6	31.6	31.6	69	22.6	0	2	315	0.00	30.263 
22:30	31.3	31.3	31.3	69	22.3	0	1	315	0.00	30.263 
22:35	31.2	31.2	31.2	70	22.6	0	2	315	0.00	30.264 
22:40	30.9	30.9	30.9	70	22.3	0	2	248	0.00	30.264 
22:45	30.6	30.6	30.6	69	21.7	0	3	248	0.00	30.264 
22:50	30.6	30.6	30.6	69	21.7	0	1	248	0.00	30.264 
22:55	30.3	30.3	30.3	69	21.4	0	2	292	0.00	30.265 
23:00	30.1	30.1	30.1	70	21.5	0	2	248	0.00	30.266 
23:05	30.0	30.0	30.0	70	21.4	0	1	248	0.00	30.265 
23:10	29.8	29.8	29.8	70	21.2	0	2	248	0.00	30.264 
23:15	29.7	29.7	29.7	70	21.1	0	2	248	0.00	30.263 
23:20	29.5	29.5	29.5	69	20.6	0	2	248	0.00	30.264 
23:25	29.4	29.4	29.4	69	20.5	0	1	248	0.00	30.267 
23:30	29.4	29.4	29.4	69	20.5	0	1	248	0.00	30.269 
23:35	29.4	29.4	29.4	69	20.5	1	2	248	0.00	30.269 
23:40	29.4	29.4	29.4	69	20.5	1	3	248	0.00	30.269 
23:45	29.4	29.4	29.4	69	20.5	0	2	292	0.00	30.267 
23:50	29.4	29.4	29.4	70	20.8	0	2	248	0.00	30.265 
23:55	29.3	29.3	29.3	69	20.4	1	3	248	0.00	30.264 

CoCoRaHS
IN-AL-39
A2 Web Hosting
Creative Commons License
GoDaddy
Look for:

loaded 2017-12-11 14:37:26 • last modified 2010-11-18 10:43:29
Privacy PolicyDisclaimer
• wx.awcolley.com is powered by PmWiki v.2002016 •
• all content (unless otherwise noted) © 2017 A W Colley